Terminal Aerodrome Forecast
Issued by NWS King Salmon, AK

Home | Current Version | Previous Version | Text Only | Print | Product List | Glossary On
Versions: 1 2 3 4 5 6 7 8 9 10 11 12 13 14 15 16 17
000
FTAK31 PANC 271740
TAFAKN
TAF
PAKN 271740Z 2718/2818 00000KT 6SM -RA BR BKN045
     FM272300 13010G20KT P6SM -RA SCT015 BKN025 OVC050
     FM280600 15008KT P6SM -RA SCT025 OVC050
     FM281500 15005KT 5SM -RA BR BKN015 OVC025=

USA.gov is the U.S. government's official web portal to all federal, state and local government web resources and services.